sensor_id;sensor_type;location;lat;lon;timestamp;pressure;altitude;pressure_sealevel;temperature;humidity
34454;BME280;60061;52.080;5.312;2022-08-20T00:03:10;101474.0;;;21.19;100.0
34454;BME280;60061;52.080;5.312;2022-08-20T00:04:48;101480.0;;;21.21;100.0
34454;BME280;60061;52.080;5.312;2022-08-20T00:06:25;101478.0;;;21.23;100.0
34454;BME280;60061;52.080;5.312;2022-08-20T00:08:04;101475.0;;;21.21;100.0
34454;BME280;60061;52.080;5.312;2022-08-20T00:11:21;101477.0;;;21.21;100.0
34454;BME280;60061;52.080;5.312;2022-08-20T00:13:02;101478.0;;;21.23;100.0
34454;BME280;60061;52.080;5.312;2022-08-20T00:14:39;101478.0;;;21.23;100.0
34454;BME280;60061;52.080;5.312;2022-08-20T00:17:57;101481.0;;;21.23;100.0
34454;BME280;60061;52.080;5.312;2022-08-20T00:19:34;101487.0;;;21.21;100.0
34454;BME280;60061;52.080;5.312;2022-08-20T00:21:15;101494.0;;;21.2;100.0
34454;BME280;60061;52.080;5.312;2022-08-20T00:22:52;101492.0;;;21.2;100.0
34454;BME280;60061;52.080;5.312;2022-08-20T00:26:05;101490.0;;;21.19;100.0
34454;BME280;60061;52.080;5.312;2022-08-20T00:27:43;101485.0;;;21.21;100.0
34454;BME280;60061;52.080;5.312;2022-08-20T00:29:19;101483.0;;;21.21;100.0
34454;BME280;60061;52.080;5.312;2022-08-20T00:32:41;101481.0;;;21.2;100.0
34454;BME280;60061;52.080;5.312;2022-08-20T00:34:18;101481.0;;;21.23;100.0
34454;BME280;60061;52.080;5.312;2022-08-20T00:35:55;101480.0;;;21.22;100.0
34454;BME280;60061;52.080;5.312;2022-08-20T00:37:32;101483.0;;;21.18;100.0
34454;BME280;60061;52.080;5.312;2022-08-20T00:40:48;101483.0;;;21.14;100.0
34454;BME280;60061;52.080;5.312;2022-08-20T00:42:29;101490.0;;;21.13;100.0
34454;BME280;60061;52.080;5.312;2022-08-20T00:44:09;101493.0;;;21.13;100.0
34454;BME280;60061;52.080;5.312;2022-08-20T00:45:55;101487.0;;;21.13;100.0
34454;BME280;60061;52.080;5.312;2022-08-20T00:49:13;101493.0;;;21.14;100.0
34454;BME280;60061;52.080;5.312;2022-08-20T00:51:05;101495.0;;;21.13;100.0
34454;BME280;60061;52.080;5.312;2022-08-20T00:52:44;101491.0;;;21.14;100.0
34454;BME280;60061;52.080;5.312;2022-08-20T00:54:25;101497.0;;;21.14;100.0
34454;BME280;60061;52.080;5.312;2022-08-20T00:57:46;101491.0;;;21.11;100.0
34454;BME280;60061;52.080;5.312;2022-08-20T00:59:27;101489.0;;;21.12;100.0
34454;BME280;60061;52.080;5.312;2022-08-20T01:01:07;101487.0;;;21.12;100.0
34454;BME280;60061;52.080;5.312;2022-08-20T01:02:47;101486.0;;;21.11;100.0
34454;BME280;60061;52.080;5.312;2022-08-20T01:06:02;101484.0;;;21.23;100.0
34454;BME280;60061;52.080;5.312;2022-08-20T01:07:40;101482.0;;;21.24;100.0
34454;BME280;60061;52.080;5.312;2022-08-20T01:09:18;101481.0;;;21.17;100.0
34454;BME280;60061;52.080;5.312;2022-08-20T01:11:08;101483.0;;;21.15;100.0
34454;BME280;60061;52.080;5.312;2022-08-20T01:14:27;101486.0;;;21.15;100.0
34454;BME280;60061;52.080;5.312;2022-08-20T01:16:10;101482.0;;;21.12;100.0
34454;BME280;60061;52.080;5.312;2022-08-20T01:17:59;101486.0;;;21.11;100.0
34454;BME280;60061;52.080;5.312;2022-08-20T01:19:42;101484.0;;;21.08;100.0
34454;BME280;60061;52.080;5.312;2022-08-20T01:21:24;101492.0;;;21.05;100.0
34454;BME280;60061;52.080;5.312;2022-08-20T01:25:29;101492.0;;;21.0;100.0
34454;BME280;60061;52.080;5.312;2022-08-20T01:27:13;101492.0;;;21.0;100.0
34454;BME280;60061;52.080;5.312;2022-08-20T01:28:52;101493.0;;;21.09;100.0
34454;BME280;60061;52.080;5.312;2022-08-20T01:30:32;101491.0;;;21.0;100.0
34454;BME280;60061;52.080;5.312;2022-08-20T01:32:09;101491.0;;;21.0;100.0
34454;BME280;60061;52.080;5.312;2022-08-20T01:33:46;101491.0;;;20.97;100.0
34454;BME280;60061;52.080;5.312;2022-08-20T01:37:03;101493.0;;;20.97;100.0
34454;BME280;60061;52.080;5.312;2022-08-20T01:38:39;101490.0;;;20.96;100.0
34454;BME280;60061;52.080;5.312;2022-08-20T01:40:26;101487.0;;;21.01;100.0
34454;BME280;60061;52.080;5.312;2022-08-20T01:42:10;101487.0;;;20.93;100.0
34454;BME280;60061;52.080;5.312;2022-08-20T01:45:35;101486.0;;;20.92;100.0
34454;BME280;60061;52.080;5.312;2022-08-20T01:47:15;101487.0;;;20.96;100.0
34454;BME280;60061;52.080;5.312;2022-08-20T01:48:57;101490.0;;;20.89;100.0
34454;BME280;60061;52.080;5.312;2022-08-20T01:50:39;101494.0;;;20.79;100.0
34454;BME280;60061;52.080;5.312;2022-08-20T01:54:04;101495.0;;;20.78;100.0
34454;BME280;60061;52.080;5.312;2022-08-20T01:55:40;101496.0;;;20.8;100.0
34454;BME280;60061;52.080;5.312;2022-08-20T01:57:19;101498.0;;;20.81;100.0
34454;BME280;60061;52.080;5.312;2022-08-20T01:59:01;101500.0;;;20.84;100.0
34454;BME280;60061;52.080;5.312;2022-08-20T02:02:17;101502.0;;;20.82;100.0
34454;BME280;60061;52.080;5.312;2022-08-20T02:03:55;101503.0;;;20.77;100.0
34454;BME280;60061;52.080;5.312;2022-08-20T02:05:33;101507.0;;;20.8;100.0
34454;BME280;60061;52.080;5.312;2022-08-20T02:08:55;101499.0;;;20.82;100.0
34454;BME280;60061;52.080;5.312;2022-08-20T02:10:32;101498.0;;;20.83;100.0
34454;BME280;60061;52.080;5.312;2022-08-20T02:12:10;101492.0;;;20.83;100.0
34454;BME280;60061;52.080;5.312;2022-08-20T02:13:52;101488.0;;;20.84;100.0
34454;BME280;60061;52.080;5.312;2022-08-20T02:17:06;101495.0;;;20.79;100.0
34454;BME280;60061;52.080;5.312;2022-08-20T02:18:43;101500.0;;;20.78;100.0
34454;BME280;60061;52.080;5.312;2022-08-20T02:20:26;101509.0;;;20.76;100.0
34454;BME280;60061;52.080;5.312;2022-08-20T02:22:13;101507.0;;;20.76;100.0
34454;BME280;60061;52.080;5.312;2022-08-20T02:24:00;101511.0;;;20.75;100.0
34454;BME280;60061;52.080;5.312;2022-08-20T02:27:18;101505.0;;;20.75;100.0
34454;BME280;60061;52.080;5.312;2022-08-20T02:28:54;101503.0;;;20.7;100.0
34454;BME280;60061;52.080;5.312;2022-08-20T02:30:34;101501.0;;;20.7;100.0
34454;BME280;60061;52.080;5.312;2022-08-20T02:33:49;101501.0;;;20.69;100.0
34454;BME280;60061;52.080;5.312;2022-08-20T02:35:27;101497.0;;;20.69;100.0
34454;BME280;60061;52.080;5.312;2022-08-20T02:37:04;101495.0;;;20.7;100.0
34454;BME280;60061;52.080;5.312;2022-08-20T02:38:42;101505.0;;;20.68;100.0
34454;BME280;60061;52.080;5.312;2022-08-20T02:41:58;101508.0;;;20.67;100.0
34454;BME280;60061;52.080;5.312;2022-08-20T02:43:35;101501.0;;;20.69;100.0
34454;BME280;60061;52.080;5.312;2022-08-20T02:45:16;101509.0;;;20.64;100.0
34454;BME280;60061;52.080;5.312;2022-08-20T02:48:29;101513.0;;;20.66;100.0
34454;BME280;60061;52.080;5.312;2022-08-20T02:50:09;101508.0;;;20.66;100.0
34454;BME280;60061;52.080;5.312;2022-08-20T02:51:47;101509.0;;;20.68;100.0
34454;BME280;60061;52.080;5.312;2022-08-20T02:53:23;101509.0;;;20.67;100.0
34454;BME280;60061;52.080;5.312;2022-08-20T02:56:39;101505.0;;;20.72;100.0
34454;BME280;60061;52.080;5.312;2022-08-20T02:58:16;101499.0;;;20.71;100.0
34454;BME280;60061;52.080;5.312;2022-08-20T02:59:55;101502.0;;;20.67;100.0
34454;BME280;60061;52.080;5.312;2022-08-20T03:03:10;101508.0;;;20.62;100.0
34454;BME280;60061;52.080;5.312;2022-08-20T03:04:47;101509.0;;;20.57;100.0
34454;BME280;60061;52.080;5.312;2022-08-20T03:06:23;101513.0;;;20.59;100.0
34454;BME280;60061;52.080;5.312;2022-08-20T03:08:00;101515.0;;;20.54;100.0
34454;BME280;60061;52.080;5.312;2022-08-20T03:11:14;101518.0;;;20.53;100.0
34454;BME280;60061;52.080;5.312;2022-08-20T03:12:51;101518.0;;;20.52;100.0
34454;BME280;60061;52.080;5.312;2022-08-20T03:14:28;101522.0;;;20.45;100.0
34454;BME280;60061;52.080;5.312;2022-08-20T03:17:42;101516.0;;;20.43;100.0
34454;BME280;60061;52.080;5.312;2022-08-20T03:19:18;101514.0;;;20.43;100.0
34454;BME280;60061;52.080;5.312;2022-08-20T03:20:55;101514.0;;;20.45;100.0
34454;BME280;60061;52.080;5.312;2022-08-20T03:24:07;101513.0;;;20.59;100.0
34454;BME280;60061;52.080;5.312;2022-08-20T03:25:45;101507.0;;;20.65;100.0
34454;BME280;60061;52.080;5.312;2022-08-20T03:27:22;101506.0;;;20.56;100.0
34454;BME280;60061;52.080;5.312;2022-08-20T03:29:00;101506.0;;;20.5;100.0
34454;BME280;60061;52.080;5.312;2022-08-20T03:32:15;101508.0;;;20.46;100.0
34454;BME280;60061;52.080;5.312;2022-08-20T03:33:51;101513.0;;;20.43;100.0
34454;BME280;60061;52.080;5.312;2022-08-20T03:35:29;101516.0;;;20.41;100.0
34454;BME280;60061;52.080;5.312;2022-08-20T03:38:43;101517.0;;;20.39;100.0
34454;BME280;60061;52.080;5.312;2022-08-20T03:40:23;101517.0;;;20.36;100.0
34454;BME280;60061;52.080;5.312;2022-08-20T03:42:02;101521.0;;;20.3;100.0
34454;BME280;60061;52.080;5.312;2022-08-20T03:43:40;101521.0;;;20.32;100.0
34454;BME280;60061;52.080;5.312;2022-08-20T03:46:55;101523.0;;;20.36;100.0
34454;BME280;60061;52.080;5.312;2022-08-20T03:48:31;101523.0;;;20.34;100.0
34454;BME280;60061;52.080;5.312;2022-08-20T03:50:10;101524.0;;;20.34;100.0
34454;BME280;60061;52.080;5.312;2022-08-20T03:53:23;101522.0;;;20.34;100.0
34454;BME280;60061;52.080;5.312;2022-08-20T03:54:59;101530.0;;;20.32;100.0
34454;BME280;60061;52.080;5.312;2022-08-20T03:56:35;101524.0;;;20.28;100.0
34454;BME280;60061;52.080;5.312;2022-08-20T03:58:13;101528.0;;;20.31;100.0
34454;BME280;60061;52.080;5.312;2022-08-20T04:01:27;101523.0;;;20.25;100.0
34454;BME280;60061;52.080;5.312;2022-08-20T04:03:04;101525.0;;;20.23;100.0
34454;BME280;60061;52.080;5.312;2022-08-20T04:04:41;101523.0;;;20.2;100.0
34454;BME280;60061;52.080;5.312;2022-08-20T04:07:55;101523.0;;;20.16;100.0
34454;BME280;60061;52.080;5.312;2022-08-20T04:09:33;101522.0;;;20.09;100.0
34454;BME280;60061;52.080;5.312;2022-08-20T04:11:09;101526.0;;;20.03;100.0
34454;BME280;60061;52.080;5.312;2022-08-20T04:12:45;101524.0;;;20.0;100.0
34454;BME280;60061;52.080;5.312;2022-08-20T04:16:00;101530.0;;;19.96;100.0
34454;BME280;60061;52.080;5.312;2022-08-20T04:17:39;101534.0;;;19.91;100.0
34454;BME280;60061;52.080;5.312;2022-08-20T04:19:16;101530.0;;;19.87;100.0
34454;BME280;60061;52.080;5.312;2022-08-20T04:22:30;101528.0;;;19.86;100.0
34454;BME280;60061;52.080;5.312;2022-08-20T04:24:06;101530.0;;;19.84;100.0
34454;BME280;60061;52.080;5.312;2022-08-20T04:25:43;101537.0;;;19.84;100.0
34454;BME280;60061;52.080;5.312;2022-08-20T04:28:57;101539.0;;;19.78;100.0
34454;BME280;60061;52.080;5.312;2022-08-20T04:30:34;101540.0;;;19.73;100.0
34454;BME280;60061;52.080;5.312;2022-08-20T04:32:11;101548.0;;;19.7;100.0
34454;BME280;60061;52.080;5.312;2022-08-20T04:33:47;101547.0;;;19.66;100.0
34454;BME280;60061;52.080;5.312;2022-08-20T04:37:00;101547.0;;;19.64;100.0
34454;BME280;60061;52.080;5.312;2022-08-20T04:38:36;101545.0;;;19.62;100.0
34454;BME280;60061;52.080;5.312;2022-08-20T04:41:17;101547.0;;;19.61;100.0
34454;BME280;60061;52.080;5.312;2022-08-20T04:42:55;101549.0;;;19.56;100.0
34454;BME280;60061;52.080;5.312;2022-08-20T04:44:32;101552.0;;;19.5;100.0
34454;BME280;60061;52.080;5.312;2022-08-20T04:47:46;101560.0;;;19.43;100.0
34454;BME280;60061;52.080;5.312;2022-08-20T04:49:25;101564.0;;;19.41;100.0
34454;BME280;60061;52.080;5.312;2022-08-20T04:51:02;101568.0;;;19.38;100.0
34454;BME280;60061;52.080;5.312;2022-08-20T04:52:38;101568.0;;;19.34;100.0
34454;BME280;60061;52.080;5.312;2022-08-20T04:55:53;101565.0;;;19.31;100.0
34454;BME280;60061;52.080;5.312;2022-08-20T04:57:37;101566.0;;;19.27;100.0
34454;BME280;60061;52.080;5.312;2022-08-20T04:59:14;101569.0;;;19.27;100.0
34454;BME280;60061;52.080;5.312;2022-08-20T05:00:53;101565.0;;;19.25;100.0
34454;BME280;60061;52.080;5.312;2022-08-20T05:04:08;101569.0;;;19.22;100.0
34454;BME280;60061;52.080;5.312;2022-08-20T05:05:44;101569.0;;;19.21;100.0
34454;BME280;60061;52.080;5.312;2022-08-20T05:07:22;101571.0;;;19.2;100.0
34454;BME280;60061;52.080;5.312;2022-08-20T05:10:38;101577.0;;;19.18;100.0
34454;BME280;60061;52.080;5.312;2022-08-20T05:12:17;101576.0;;;19.18;100.0
34454;BME280;60061;52.080;5.312;2022-08-20T05:13:55;101573.0;;;19.16;99.63
34454;BME280;60061;52.080;5.312;2022-08-20T05:15:31;101576.0;;;19.13;99.49
34454;BME280;60061;52.080;5.312;2022-08-20T05:18:45;101581.0;;;19.09;98.86
34454;BME280;60061;52.080;5.312;2022-08-20T05:20:21;101581.0;;;19.02;99.48
34454;BME280;60061;52.080;5.312;2022-08-20T05:21:59;101580.0;;;19.0;99.83
34454;BME280;60061;52.080;5.312;2022-08-20T05:25:14;101584.0;;;18.95;99.86
34454;BME280;60061;52.080;5.312;2022-08-20T05:26:50;101584.0;;;18.93;99.8
34454;BME280;60061;52.080;5.312;2022-08-20T05:28:32;101580.0;;;18.89;99.96
34454;BME280;60061;52.080;5.312;2022-08-20T05:30:10;101584.0;;;18.87;100.0
34454;BME280;60061;52.080;5.312;2022-08-20T05:33:24;101587.0;;;18.86;99.95
34454;BME280;60061;52.080;5.312;2022-08-20T05:35:02;101590.0;;;18.84;100.0
34454;BME280;60061;52.080;5.312;2022-08-20T05:36:41;101586.0;;;18.84;100.0
34454;BME280;60061;52.080;5.312;2022-08-20T05:39:59;101597.0;;;18.87;100.0
34454;BME280;60061;52.080;5.312;2022-08-20T05:41:37;101598.0;;;18.88;100.0
34454;BME280;60061;52.080;5.312;2022-08-20T05:43:14;101594.0;;;18.88;100.0
34454;BME280;60061;52.080;5.312;2022-08-20T05:44:51;101595.0;;;18.91;100.0
34454;BME280;60061;52.080;5.312;2022-08-20T05:48:06;101599.0;;;18.91;100.0
34454;BME280;60061;52.080;5.312;2022-08-20T05:49:43;101593.0;;;18.93;100.0
34454;BME280;60061;52.080;5.312;2022-08-20T05:51:19;101598.0;;;18.96;100.0
34454;BME280;60061;52.080;5.312;2022-08-20T05:54:31;101596.0;;;19.0;100.0
34454;BME280;60061;52.080;5.312;2022-08-20T05:56:10;101599.0;;;19.03;100.0
34454;BME280;60061;52.080;5.312;2022-08-20T05:57:47;101601.0;;;19.05;100.0
34454;BME280;60061;52.080;5.312;2022-08-20T06:01:02;101607.0;;;19.07;100.0
34454;BME280;60061;52.080;5.312;2022-08-20T06:06:21;101612.0;;;19.11;100.0
34454;BME280;60061;52.080;5.312;2022-08-20T06:07:57;101614.0;;;19.13;100.0
34454;BME280;60061;52.080;5.312;2022-08-20T06:11:12;101614.0;;;19.16;100.0
34454;BME280;60061;52.080;5.312;2022-08-20T06:12:48;101613.0;;;19.16;100.0
34454;BME280;60061;52.080;5.312;2022-08-20T06:14:24;101614.0;;;19.23;100.0
34454;BME280;60061;52.080;5.312;2022-08-20T06:17:39;101614.0;;;19.31;100.0
34454;BME280;60061;52.080;5.312;2022-08-20T06:19:16;101616.0;;;19.41;100.0
34454;BME280;60061;52.080;5.312;2022-08-20T06:20:52;101616.0;;;19.36;100.0
34454;BME280;60061;52.080;5.312;2022-08-20T06:22:29;101616.0;;;19.45;100.0
34454;BME280;60061;52.080;5.312;2022-08-20T06:25:43;101617.0;;;19.43;100.0
34454;BME280;60061;52.080;5.312;2022-08-20T06:27:21;101616.0;;;19.47;100.0
34454;BME280;60061;52.080;5.312;2022-08-20T06:28:58;101615.0;;;19.5;100.0
34454;BME280;60061;52.080;5.312;2022-08-20T06:32:11;101617.0;;;19.52;100.0
34454;BME280;60061;52.080;5.312;2022-08-20T06:33:48;101613.0;;;19.55;100.0
34454;BME280;60061;52.080;5.312;2022-08-20T06:35:24;101618.0;;;19.59;100.0
34454;BME280;60061;52.080;5.312;2022-08-20T06:38:37;101620.0;;;19.61;100.0
34454;BME280;60061;52.080;5.312;2022-08-20T06:40:16;101620.0;;;19.68;100.0
34454;BME280;60061;52.080;5.312;2022-08-20T06:42:00;101623.0;;;19.72;100.0
34454;BME280;60061;52.080;5.312;2022-08-20T06:43:36;101618.0;;;19.75;99.36
34454;BME280;60061;52.080;5.312;2022-08-20T06:46:59;101618.0;;;19.73;99.85
34454;BME280;60061;52.080;5.312;2022-08-20T06:48:37;101612.0;;;19.78;98.95
34454;BME280;60061;52.080;5.312;2022-08-20T06:50:15;101620.0;;;19.82;97.67
34454;BME280;60061;52.080;5.312;2022-08-20T06:51:58;101621.0;;;20.02;96.65
34454;BME280;60061;52.080;5.312;2022-08-20T06:55:10;101626.0;;;20.0;97.05
34454;BME280;60061;52.080;5.312;2022-08-20T06:56:46;101626.0;;;20.12;96.17
34454;BME280;60061;52.080;5.312;2022-08-20T06:58:24;101630.0;;;20.06;97.49
34454;BME280;60061;52.080;5.312;2022-08-20T07:01:41;101627.0;;;20.11;96.95
34454;BME280;60061;52.080;5.312;2022-08-20T07:03:17;101628.0;;;20.18;95.39
34454;BME280;60061;52.080;5.312;2022-08-20T07:04:54;101626.0;;;20.16;94.47
34454;BME280;60061;52.080;5.312;2022-08-20T07:06:30;101628.0;;;20.23;95.94
34454;BME280;60061;52.080;5.312;2022-08-20T07:09:44;101634.0;;;20.28;96.81
34454;BME280;60061;52.080;5.312;2022-08-20T07:11:20;101640.0;;;20.43;97.29
34454;BME280;60061;52.080;5.312;2022-08-20T07:12:59;101641.0;;;20.48;97.13
34454;BME280;60061;52.080;5.312;2022-08-20T07:16:11;101641.0;;;20.55;96.28
34454;BME280;60061;52.080;5.312;2022-08-20T07:17:49;101641.0;;;20.53;92.78
34454;BME280;60061;52.080;5.312;2022-08-20T07:19:28;101641.0;;;20.62;95.39
34454;BME280;60061;52.080;5.312;2022-08-20T07:21:04;101640.0;;;20.72;95.3
34454;BME280;60061;52.080;5.312;2022-08-20T07:24:18;101642.0;;;20.81;95.6
34454;BME280;60061;52.080;5.312;2022-08-20T07:25:54;101646.0;;;20.81;89.87
34454;BME280;60061;52.080;5.312;2022-08-20T07:27:31;101650.0;;;20.84;88.25
34454;BME280;60061;52.080;5.312;2022-08-20T07:33:37;101646.0;;;20.82;86.34
34454;BME280;60061;52.080;5.312;2022-08-20T07:36:57;101653.0;;;20.87;87.82
34454;BME280;60061;52.080;5.312;2022-08-20T07:38:35;101655.0;;;20.9;87.51
34454;BME280;60061;52.080;5.312;2022-08-20T07:40:14;101655.0;;;20.92;85.89
34454;BME280;60061;52.080;5.312;2022-08-20T07:42:02;101660.0;;;20.99;91.2
34454;BME280;60061;52.080;5.312;2022-08-20T07:45:17;101658.0;;;21.09;90.19
34454;BME280;60061;52.080;5.312;2022-08-20T07:46:53;101655.0;;;21.14;87.05
34454;BME280;60061;52.080;5.312;2022-08-20T07:48:30;101656.0;;;21.21;85.43
34454;BME280;60061;52.080;5.312;2022-08-20T07:51:47;101663.0;;;21.15;81.77
34454;BME280;60061;52.080;5.312;2022-08-20T07:53:23;101663.0;;;21.14;86.84
34454;BME280;60061;52.080;5.312;2022-08-20T07:55:01;101666.0;;;21.32;83.04
34454;BME280;60061;52.080;5.312;2022-08-20T07:56:36;101670.0;;;21.32;82.59
34454;BME280;60061;52.080;5.312;2022-08-20T07:59:59;101672.0;;;21.39;81.62
34454;BME280;60061;52.080;5.312;2022-08-20T08:01:35;101672.0;;;21.51;81.14
34454;BME280;60061;52.080;5.312;2022-08-20T08:03:12;101674.0;;;21.64;81.52
34454;BME280;60061;52.080;5.312;2022-08-20T08:06:26;101678.0;;;21.63;77.81
34454;BME280;60061;52.080;5.312;2022-08-20T08:08:06;101670.0;;;21.69;78.45
34454;BME280;60061;52.080;5.312;2022-08-20T08:09:44;101678.0;;;21.6;74.48
34454;BME280;60061;52.080;5.312;2022-08-20T08:11:21;101677.0;;;21.62;77.77
34454;BME280;60061;52.080;5.312;2022-08-20T08:14:40;101682.0;;;21.62;75.61
34454;BME280;60061;52.080;5.312;2022-08-20T08:17:59;101680.0;;;21.82;80.66
34454;BME280;60061;52.080;5.312;2022-08-20T08:19:43;101680.0;;;21.97;74.22
34454;BME280;60061;52.080;5.312;2022-08-20T08:23:00;101676.0;;;22.05;76.55
34454;BME280;60061;52.080;5.312;2022-08-20T08:24:37;101680.0;;;22.06;75.58
34454;BME280;60061;52.080;5.312;2022-08-20T08:26:15;101677.0;;;22.03;73.58
34454;BME280;60061;52.080;5.312;2022-08-20T08:29:28;101676.0;;;22.2;76.99
34454;BME280;60061;52.080;5.312;2022-08-20T08:31:04;101674.0;;;22.32;72.94
34454;BME280;60061;52.080;5.312;2022-08-20T08:33:29;101678.0;;;22.27;73.53
34454;BME280;60061;52.080;5.312;2022-08-20T08:35:08;101680.0;;;22.25;75.16
34454;BME280;60061;52.080;5.312;2022-08-20T08:36:45;101680.0;;;22.27;70.74
34454;BME280;60061;52.080;5.312;2022-08-20T08:40:00;101683.0;;;22.24;73.81
34454;BME280;60061;52.080;5.312;2022-08-20T08:41:40;101683.0;;;22.18;74.77
34454;BME280;60061;52.080;5.312;2022-08-20T08:43:22;101684.0;;;22.23;73.13
34454;BME280;60061;52.080;5.312;2022-08-20T08:44:59;101684.0;;;22.13;72.55
34454;BME280;60061;52.080;5.312;2022-08-20T08:48:18;101684.0;;;22.07;69.77
34454;BME280;60061;52.080;5.312;2022-08-20T08:49:55;101685.0;;;22.16;71.45
34454;BME280;60061;52.080;5.312;2022-08-20T08:51:37;101689.0;;;22.26;71.19
34454;BME280;60061;52.080;5.312;2022-08-20T08:53:23;101691.0;;;22.36;71.17
34454;BME280;60061;52.080;5.312;2022-08-20T08:56:51;101691.0;;;22.59;69.27
34454;BME280;60061;52.080;5.312;2022-08-20T08:58:27;101693.0;;;22.66;70.19
34454;BME280;60061;52.080;5.312;2022-08-20T09:00:08;101696.0;;;22.63;67.81
34454;BME280;60061;52.080;5.312;2022-08-20T09:01:49;101690.0;;;22.78;68.1
34454;BME280;60061;52.080;5.312;2022-08-20T09:05:13;101691.0;;;22.81;66.58
34454;BME280;60061;52.080;5.312;2022-08-20T09:06:52;101696.0;;;22.78;66.8
34454;BME280;60061;52.080;5.312;2022-08-20T09:08:31;101699.0;;;22.66;64.06
34454;BME280;60061;52.080;5.312;2022-08-20T09:10:13;101700.0;;;22.66;65.83
34454;BME280;60061;52.080;5.312;2022-08-20T09:13:30;101697.0;;;22.57;65.11
34454;BME280;60061;52.080;5.312;2022-08-20T09:15:06;101698.0;;;22.63;66.44
34454;BME280;60061;52.080;5.312;2022-08-20T09:16:43;101696.0;;;22.7;61.47
34454;BME280;60061;52.080;5.312;2022-08-20T09:18:20;101699.0;;;22.81;62.2
34454;BME280;60061;52.080;5.312;2022-08-20T09:21:32;101705.0;;;22.84;62.81
34454;BME280;60061;52.080;5.312;2022-08-20T09:23:09;101705.0;;;22.77;62.85
34454;BME280;60061;52.080;5.312;2022-08-20T09:24:46;101705.0;;;22.7;54.5
34454;BME280;60061;52.080;5.312;2022-08-20T09:28:00;101705.0;;;22.59;58.49
34454;BME280;60061;52.080;5.312;2022-08-20T09:29:37;101700.0;;;22.7;58.29
34454;BME280;60061;52.080;5.312;2022-08-20T09:31:14;101699.0;;;22.85;57.25
34454;BME280;60061;52.080;5.312;2022-08-20T09:32:51;101696.0;;;22.81;55.17
34454;BME280;60061;52.080;5.312;2022-08-20T09:36:03;101698.0;;;22.77;54.95
34454;BME280;60061;52.080;5.312;2022-08-20T09:37:40;101698.0;;;22.87;57.84
34454;BME280;60061;52.080;5.312;2022-08-20T09:39:17;101695.0;;;22.99;56.57
34454;BME280;60061;52.080;5.312;2022-08-20T09:42:31;101692.0;;;23.11;57.45
34454;BME280;60061;52.080;5.312;2022-08-20T09:44:10;101697.0;;;23.33;58.05
34454;BME280;60061;52.080;5.312;2022-08-20T09:45:46;101696.0;;;23.47;56.08
34454;BME280;60061;52.080;5.312;2022-08-20T09:48:59;101696.0;;;23.51;54.07
34454;BME280;60061;52.080;5.312;2022-08-20T09:50:40;101690.0;;;23.52;53.87
34454;BME280;60061;52.080;5.312;2022-08-20T09:52:27;101691.0;;;23.64;55.22
34454;BME280;60061;52.080;5.312;2022-08-20T09:54:04;101691.0;;;23.68;56.27
34454;BME280;60061;52.080;5.312;2022-08-20T09:57:21;101692.0;;;23.66;53.69
34454;BME280;60061;52.080;5.312;2022-08-20T09:58:58;101690.0;;;23.73;55.78
34454;BME280;60061;52.080;5.312;2022-08-20T10:00:34;101692.0;;;23.74;53.54
34454;BME280;60061;52.080;5.312;2022-08-20T10:02:10;101698.0;;;23.7;49.48
34454;BME280;60061;52.080;5.312;2022-08-20T10:05:24;101697.0;;;23.62;50.7
34454;BME280;60061;52.080;5.312;2022-08-20T10:07:00;101693.0;;;23.67;51.44
34454;BME280;60061;52.080;5.312;2022-08-20T10:08:37;101692.0;;;23.65;54.54
34454;BME280;60061;52.080;5.312;2022-08-20T10:11:50;101692.0;;;23.77;54.82
34454;BME280;60061;52.080;5.312;2022-08-20T10:17:14;101690.0;;;24.08;52.75
34454;BME280;60061;52.080;5.312;2022-08-20T10:18:50;101687.0;;;24.13;52.97
34454;BME280;60061;52.080;5.312;2022-08-20T10:22:04;101688.0;;;24.1;50.44
34454;BME280;60061;52.080;5.312;2022-08-20T10:23:41;101688.0;;;24.11;49.53
34454;BME280;60061;52.080;5.312;2022-08-20T10:25:18;101687.0;;;24.3;52.48
34454;BME280;60061;52.080;5.312;2022-08-20T10:28:32;101687.0;;;24.52;50.82
34454;BME280;60061;52.080;5.312;2022-08-20T10:30:09;101690.0;;;24.5;51.05
34454;BME280;60061;52.080;5.312;2022-08-20T10:31:47;101693.0;;;24.61;51.73
34454;BME280;60061;52.080;5.312;2022-08-20T10:35:03;101699.0;;;24.73;50.08
34454;BME280;60061;52.080;5.312;2022-08-20T10:36:40;101693.0;;;24.76;46.53
34454;BME280;60061;52.080;5.312;2022-08-20T10:38:18;101697.0;;;24.88;49.67
34454;BME280;60061;52.080;5.312;2022-08-20T10:39:55;101701.0;;;24.92;48.81
34454;BME280;60061;52.080;5.312;2022-08-20T10:43:08;101697.0;;;24.87;49.54
34454;BME280;60061;52.080;5.312;2022-08-20T10:44:44;101691.0;;;24.94;51.3
34454;BME280;60061;52.080;5.312;2022-08-20T10:46:20;101699.0;;;25.12;51.44
34454;BME280;60061;52.080;5.312;2022-08-20T10:49:34;101697.0;;;25.01;47.61
34454;BME280;60061;52.080;5.312;2022-08-20T10:51:11;101695.0;;;25.02;47.94
34454;BME280;60061;52.080;5.312;2022-08-20T10:52:47;101701.0;;;24.84;47.44
34454;BME280;60061;52.080;5.312;2022-08-20T10:55:59;101703.0;;;24.84;48.83
34454;BME280;60061;52.080;5.312;2022-08-20T10:57:37;101702.0;;;24.66;47.2
34454;BME280;60061;52.080;5.312;2022-08-20T10:59:14;101700.0;;;24.61;48.44
34454;BME280;60061;52.080;5.312;2022-08-20T11:00:51;101695.0;;;24.55;48.13
34454;BME280;60061;52.080;5.312;2022-08-20T11:04:05;101700.0;;;24.57;51.14
34454;BME280;60061;52.080;5.312;2022-08-20T11:05:41;101698.0;;;24.51;48.73
34454;BME280;60061;52.080;5.312;2022-08-20T11:07:19;101693.0;;;24.57;48.05
34454;BME280;60061;52.080;5.312;2022-08-20T11:10:38;101694.0;;;24.62;47.17
34454;BME280;60061;52.080;5.312;2022-08-20T11:12:16;101696.0;;;24.83;47.16
34454;BME280;60061;52.080;5.312;2022-08-20T11:13:53;101695.0;;;25.01;46.2
34454;BME280;60061;52.080;5.312;2022-08-20T11:15:29;101695.0;;;25.06;47.22
34454;BME280;60061;52.080;5.312;2022-08-20T11:18:55;101699.0;;;25.18;51.26
34454;BME280;60061;52.080;5.312;2022-08-20T11:20:31;101690.0;;;25.16;45.72
34454;BME280;60061;52.080;5.312;2022-08-20T11:22:09;101685.0;;;25.3;48.58